sensor_id;sensor_type;location;lat;lon;timestamp;P1;durP1;ratioP1;P2;durP2;ratioP2
62535;SDS011;63050;47.514;18.920;2023-07-30T00:02:17;3.00;;;1.70;;
62535;SDS011;63050;47.514;18.920;2023-07-30T00:07:18;3.10;;;1.50;;
62535;SDS011;63050;47.514;18.920;2023-07-30T00:12:19;2.90;;;1.60;;
62535;SDS011;63050;47.514;18.920;2023-07-30T00:17:20;7.30;;;1.70;;
62535;SDS011;63050;47.514;18.920;2023-07-30T00:22:21;3.80;;;1.60;;
62535;SDS011;63050;47.514;18.920;2023-07-30T00:27:22;3.90;;;1.60;;
62535;SDS011;63050;47.514;18.920;2023-07-30T00:32:23;3.90;;;1.70;;
62535;SDS011;63050;47.514;18.920;2023-07-30T00:37:24;2.80;;;1.50;;
62535;SDS011;63050;47.514;18.920;2023-07-30T00:42:25;5.10;;;2.30;;
62535;SDS011;63050;47.514;18.920;2023-07-30T00:47:26;8.20;;;2.20;;
62535;SDS011;63050;47.514;18.920;2023-07-30T00:52:27;17.60;;;4.20;;
62535;SDS011;63050;47.514;18.920;2023-07-30T00:57:28;5.50;;;2.70;;
62535;SDS011;63050;47.514;18.920;2023-07-30T01:02:30;2.70;;;1.80;;
62535;SDS011;63050;47.514;18.920;2023-07-30T01:07:31;2.60;;;1.40;;
62535;SDS011;63050;47.514;18.920;2023-07-30T01:12:32;2.50;;;1.30;;
62535;SDS011;63050;47.514;18.920;2023-07-30T01:17:35;2.10;;;1.20;;
62535;SDS011;63050;47.514;18.920;2023-07-30T01:22:36;3.10;;;1.30;;
62535;SDS011;63050;47.514;18.920;2023-07-30T01:27:39;2.40;;;1.40;;
62535;SDS011;63050;47.514;18.920;2023-07-30T01:32:41;3.70;;;1.60;;
62535;SDS011;63050;47.514;18.920;2023-07-30T01:37:42;2.30;;;1.50;;
62535;SDS011;63050;47.514;18.920;2023-07-30T01:42:44;2.90;;;1.30;;
62535;SDS011;63050;47.514;18.920;2023-07-30T01:47:45;2.10;;;1.40;;
62535;SDS011;63050;47.514;18.920;2023-07-30T01:52:46;2.40;;;1.50;;
62535;SDS011;63050;47.514;18.920;2023-07-30T01:57:47;2.00;;;1.30;;
62535;SDS011;63050;47.514;18.920;2023-07-30T02:02:48;2.30;;;1.50;;
62535;SDS011;63050;47.514;18.920;2023-07-30T02:07:49;2.30;;;1.40;;
62535;SDS011;63050;47.514;18.920;2023-07-30T02:12:49;2.50;;;1.40;;
62535;SDS011;63050;47.514;18.920;2023-07-30T02:17:51;2.40;;;1.50;;
62535;SDS011;63050;47.514;18.920;2023-07-30T02:22:51;3.20;;;1.50;;
62535;SDS011;63050;47.514;18.920;2023-07-30T02:27:52;2.40;;;1.30;;
62535;SDS011;63050;47.514;18.920;2023-07-30T02:32:53;2.60;;;1.40;;
62535;SDS011;63050;47.514;18.920;2023-07-30T02:37:54;2.40;;;1.30;;
62535;SDS011;63050;47.514;18.920;2023-07-30T02:42:55;2.60;;;1.50;;
62535;SDS011;63050;47.514;18.920;2023-07-30T02:47:56;4.30;;;2.00;;
62535;SDS011;63050;47.514;18.920;2023-07-30T02:52:57;2.50;;;1.60;;
62535;SDS011;63050;47.514;18.920;2023-07-30T02:57:58;2.50;;;1.90;;
62535;SDS011;63050;47.514;18.920;2023-07-30T03:02:58;2.50;;;1.60;;
62535;SDS011;63050;47.514;18.920;2023-07-30T03:07:59;1.80;;;1.20;;
62535;SDS011;63050;47.514;18.920;2023-07-30T03:13:00;2.50;;;1.30;;
62535;SDS011;63050;47.514;18.920;2023-07-30T03:18:01;2.40;;;1.40;;
62535;SDS011;63050;47.514;18.920;2023-07-30T03:23:02;4.20;;;1.60;;
62535;SDS011;63050;47.514;18.920;2023-07-30T03:28:03;3.40;;;1.60;;
62535;SDS011;63050;47.514;18.920;2023-07-30T03:33:04;2.50;;;1.60;;
62535;SDS011;63050;47.514;18.920;2023-07-30T03:38:05;2.50;;;1.40;;
62535;SDS011;63050;47.514;18.920;2023-07-30T03:43:06;2.00;;;1.40;;
62535;SDS011;63050;47.514;18.920;2023-07-30T03:48:07;2.60;;;1.80;;
62535;SDS011;63050;47.514;18.920;2023-07-30T03:53:08;2.50;;;1.40;;
62535;SDS011;63050;47.514;18.920;2023-07-30T03:58:09;3.50;;;1.20;;
62535;SDS011;63050;47.514;18.920;2023-07-30T04:03:10;3.30;;;1.50;;
62535;SDS011;63050;47.514;18.920;2023-07-30T04:08:11;1.90;;;1.30;;
62535;SDS011;63050;47.514;18.920;2023-07-30T04:13:12;2.20;;;1.50;;
62535;SDS011;63050;47.514;18.920;2023-07-30T04:18:14;3.70;;;1.80;;
62535;SDS011;63050;47.514;18.920;2023-07-30T04:23:15;3.30;;;1.60;;
62535;SDS011;63050;47.514;18.920;2023-07-30T04:28:16;2.80;;;1.60;;
62535;SDS011;63050;47.514;18.920;2023-07-30T04:33:17;2.50;;;1.60;;
62535;SDS011;63050;47.514;18.920;2023-07-30T04:38:18;3.90;;;1.50;;
62535;SDS011;63050;47.514;18.920;2023-07-30T04:43:19;2.90;;;1.80;;
62535;SDS011;63050;47.514;18.920;2023-07-30T04:48:26;3.40;;;1.60;;
62535;SDS011;63050;47.514;18.920;2023-07-30T04:53:27;3.40;;;1.90;;
62535;SDS011;63050;47.514;18.920;2023-07-30T04:58:28;2.60;;;1.50;;
62535;SDS011;63050;47.514;18.920;2023-07-30T05:03:29;4.00;;;1.80;;
62535;SDS011;63050;47.514;18.920;2023-07-30T05:08:30;2.80;;;1.70;;
62535;SDS011;63050;47.514;18.920;2023-07-30T05:13:30;3.20;;;1.70;;
62535;SDS011;63050;47.514;18.920;2023-07-30T05:18:31;3.70;;;1.80;;
62535;SDS011;63050;47.514;18.920;2023-07-30T05:23:32;2.80;;;2.10;;
62535;SDS011;63050;47.514;18.920;2023-07-30T05:28:33;2.60;;;1.50;;
62535;SDS011;63050;47.514;18.920;2023-07-30T05:33:34;2.00;;;1.50;;
62535;SDS011;63050;47.514;18.920;2023-07-30T05:38:35;4.20;;;1.90;;
62535;SDS011;63050;47.514;18.920;2023-07-30T05:43:36;2.20;;;1.50;;
62535;SDS011;63050;47.514;18.920;2023-07-30T05:48:37;3.30;;;1.70;;
62535;SDS011;63050;47.514;18.920;2023-07-30T05:53:38;3.00;;;1.80;;
62535;SDS011;63050;47.514;18.920;2023-07-30T05:58:39;2.60;;;1.60;;
62535;SDS011;63050;47.514;18.920;2023-07-30T06:03:40;3.00;;;1.70;;
62535;SDS011;63050;47.514;18.920;2023-07-30T06:08:40;3.10;;;1.50;;
62535;SDS011;63050;47.514;18.920;2023-07-30T06:13:41;5.10;;;1.80;;
62535;SDS011;63050;47.514;18.920;2023-07-30T06:18:42;2.50;;;1.60;;
62535;SDS011;63050;47.514;18.920;2023-07-30T06:23:43;2.30;;;1.40;;
62535;SDS011;63050;47.514;18.920;2023-07-30T06:28:44;2.10;;;1.30;;
62535;SDS011;63050;47.514;18.920;2023-07-30T06:33:45;4.00;;;1.70;;
62535;SDS011;63050;47.514;18.920;2023-07-30T06:38:46;2.60;;;1.60;;
62535;SDS011;63050;47.514;18.920;2023-07-30T06:43:47;2.60;;;1.90;;
62535;SDS011;63050;47.514;18.920;2023-07-30T06:48:48;2.40;;;1.50;;
62535;SDS011;63050;47.514;18.920;2023-07-30T06:53:48;2.10;;;1.50;;
62535;SDS011;63050;47.514;18.920;2023-07-30T06:58:49;2.50;;;1.70;;
62535;SDS011;63050;47.514;18.920;2023-07-30T07:03:51;2.30;;;1.50;;
62535;SDS011;63050;47.514;18.920;2023-07-30T07:08:51;2.60;;;1.50;;
62535;SDS011;63050;47.514;18.920;2023-07-30T07:13:52;2.50;;;1.60;;
62535;SDS011;63050;47.514;18.920;2023-07-30T07:18:53;3.50;;;1.70;;
62535;SDS011;63050;47.514;18.920;2023-07-30T07:23:54;2.80;;;1.60;;
62535;SDS011;63050;47.514;18.920;2023-07-30T07:28:56;3.10;;;1.90;;
62535;SDS011;63050;47.514;18.920;2023-07-30T07:33:56;2.80;;;2.00;;
62535;SDS011;63050;47.514;18.920;2023-07-30T07:38:57;4.40;;;2.00;;
62535;SDS011;63050;47.514;18.920;2023-07-30T07:43:58;3.10;;;2.10;;
62535;SDS011;63050;47.514;18.920;2023-07-30T07:48:59;2.70;;;2.00;;
62535;SDS011;63050;47.514;18.920;2023-07-30T07:54:00;4.60;;;2.10;;
62535;SDS011;63050;47.514;18.920;2023-07-30T07:59:01;2.50;;;1.90;;
62535;SDS011;63050;47.514;18.920;2023-07-30T08:04:02;3.40;;;2.30;;
62535;SDS011;63050;47.514;18.920;2023-07-30T08:09:03;3.30;;;2.00;;
62535;SDS011;63050;47.514;18.920;2023-07-30T08:14:04;4.00;;;2.50;;
62535;SDS011;63050;47.514;18.920;2023-07-30T08:19:04;3.60;;;2.30;;
62535;SDS011;63050;47.514;18.920;2023-07-30T08:24:05;4.30;;;2.00;;
62535;SDS011;63050;47.514;18.920;2023-07-30T08:29:06;3.60;;;2.90;;
62535;SDS011;63050;47.514;18.920;2023-07-30T08:34:10;3.60;;;2.70;;
62535;SDS011;63050;47.514;18.920;2023-07-30T08:39:11;5.90;;;2.20;;
62535;SDS011;63050;47.514;18.920;2023-07-30T08:44:12;3.00;;;2.10;;
62535;SDS011;63050;47.514;18.920;2023-07-30T08:49:13;2.90;;;2.10;;
62535;SDS011;63050;47.514;18.920;2023-07-30T08:54:14;3.70;;;2.20;;
62535;SDS011;63050;47.514;18.920;2023-07-30T08:59:16;2.90;;;2.00;;
62535;SDS011;63050;47.514;18.920;2023-07-30T09:04:18;2.00;;;1.50;;
62535;SDS011;63050;47.514;18.920;2023-07-30T09:09:20;4.00;;;1.90;;
62535;SDS011;63050;47.514;18.920;2023-07-30T09:14:21;2.90;;;1.60;;
62535;SDS011;63050;47.514;18.920;2023-07-30T09:19:23;3.20;;;2.20;;
62535;SDS011;63050;47.514;18.920;2023-07-30T09:24:24;4.20;;;2.00;;
62535;SDS011;63050;47.514;18.920;2023-07-30T09:29:25;2.90;;;1.70;;
62535;SDS011;63050;47.514;18.920;2023-07-30T09:34:27;3.40;;;1.70;;
62535;SDS011;63050;47.514;18.920;2023-07-30T09:39:27;2.50;;;1.40;;
62535;SDS011;63050;47.514;18.920;2023-07-30T09:44:29;2.90;;;1.80;;
62535;SDS011;63050;47.514;18.920;2023-07-30T09:49:32;2.90;;;1.80;;
62535;SDS011;63050;47.514;18.920;2023-07-30T09:54:33;2.40;;;1.70;;
62535;SDS011;63050;47.514;18.920;2023-07-30T09:59:34;2.30;;;1.40;;
62535;SDS011;63050;47.514;18.920;2023-07-30T10:04:35;2.20;;;1.40;;
62535;SDS011;63050;47.514;18.920;2023-07-30T10:09:40;4.00;;;2.40;;
62535;SDS011;63050;47.514;18.920;2023-07-30T10:14:45;3.40;;;2.30;;
62535;SDS011;63050;47.514;18.920;2023-07-30T10:19:48;3.20;;;2.40;;
62535;SDS011;63050;47.514;18.920;2023-07-30T10:25:00;4.30;;;2.60;;
62535;SDS011;63050;47.514;18.920;2023-07-30T10:30:14;3.90;;;2.60;;
62535;SDS011;63050;47.514;18.920;2023-07-30T10:46:09;3.50;;;2.20;;
62535;SDS011;63050;47.514;18.920;2023-07-30T10:51:12;4.20;;;2.50;;
62535;SDS011;63050;47.514;18.920;2023-07-30T10:56:16;4.10;;;2.90;;
62535;SDS011;63050;47.514;18.920;2023-07-30T11:01:18;7.60;;;2.40;;
62535;SDS011;63050;47.514;18.920;2023-07-30T11:06:25;2.70;;;1.90;;
62535;SDS011;63050;47.514;18.920;2023-07-30T11:11:27;5.20;;;2.50;;
62535;SDS011;63050;47.514;18.920;2023-07-30T11:16:28;4.00;;;2.30;;
62535;SDS011;63050;47.514;18.920;2023-07-30T11:21:29;3.40;;;2.60;;
62535;SDS011;63050;47.514;18.920;2023-07-30T11:26:30;4.10;;;2.80;;
62535;SDS011;63050;47.514;18.920;2023-07-30T11:31:31;5.10;;;2.80;;
62535;SDS011;63050;47.514;18.920;2023-07-30T11:36:32;4.50;;;2.70;;
62535;SDS011;63050;47.514;18.920;2023-07-30T11:41:33;3.70;;;2.30;;
62535;SDS011;63050;47.514;18.920;2023-07-30T11:46:34;3.10;;;2.30;;
62535;SDS011;63050;47.514;18.920;2023-07-30T11:51:36;3.30;;;1.90;;
62535;SDS011;63050;47.514;18.920;2023-07-30T11:56:37;4.30;;;2.20;;
62535;SDS011;63050;47.514;18.920;2023-07-30T12:01:38;3.50;;;2.20;;
62535;SDS011;63050;47.514;18.920;2023-07-30T12:06:43;3.60;;;2.30;;
62535;SDS011;63050;47.514;18.920;2023-07-30T12:11:50;2.90;;;1.80;;
62535;SDS011;63050;47.514;18.920;2023-07-30T12:16:55;3.70;;;1.90;;
62535;SDS011;63050;47.514;18.920;2023-07-30T12:21:57;4.40;;;2.00;;
62535;SDS011;63050;47.514;18.920;2023-07-30T12:26:58;3.20;;;1.90;;
62535;SDS011;63050;47.514;18.920;2023-07-30T12:31:58;3.10;;;2.00;;
62535;SDS011;63050;47.514;18.920;2023-07-30T12:36:59;2.50;;;2.10;;
62535;SDS011;63050;47.514;18.920;2023-07-30T12:42:00;4.70;;;2.00;;
62535;SDS011;63050;47.514;18.920;2023-07-30T12:47:01;5.50;;;2.30;;
62535;SDS011;63050;47.514;18.920;2023-07-30T12:52:02;2.90;;;2.00;;
62535;SDS011;63050;47.514;18.920;2023-07-30T12:57:03;3.10;;;1.80;;
62535;SDS011;63050;47.514;18.920;2023-07-30T13:02:04;2.80;;;1.60;;
62535;SDS011;63050;47.514;18.920;2023-07-30T13:07:05;2.20;;;1.20;;
62535;SDS011;63050;47.514;18.920;2023-07-30T13:12:07;2.20;;;1.70;;
62535;SDS011;63050;47.514;18.920;2023-07-30T13:17:08;2.60;;;1.60;;
62535;SDS011;63050;47.514;18.920;2023-07-30T13:22:10;2.50;;;1.40;;
62535;SDS011;63050;47.514;18.920;2023-07-30T13:27:11;3.30;;;1.70;;
62535;SDS011;63050;47.514;18.920;2023-07-30T13:32:13;2.80;;;1.80;;
62535;SDS011;63050;47.514;18.920;2023-07-30T13:37:14;2.20;;;1.40;;
62535;SDS011;63050;47.514;18.920;2023-07-30T13:42:16;3.00;;;1.40;;
62535;SDS011;63050;47.514;18.920;2023-07-30T13:47:17;2.80;;;1.40;;
62535;SDS011;63050;47.514;18.920;2023-07-30T13:52:18;2.30;;;1.90;;
62535;SDS011;63050;47.514;18.920;2023-07-30T13:57:23;4.30;;;1.90;;
62535;SDS011;63050;47.514;18.920;2023-07-30T14:02:25;2.50;;;1.50;;
62535;SDS011;63050;47.514;18.920;2023-07-30T14:07:27;1.80;;;1.30;;
62535;SDS011;63050;47.514;18.920;2023-07-30T14:12:28;2.30;;;1.50;;
62535;SDS011;63050;47.514;18.920;2023-07-30T14:17:30;1.70;;;1.20;;
62535;SDS011;63050;47.514;18.920;2023-07-30T14:22:31;2.60;;;1.40;;
62535;SDS011;63050;47.514;18.920;2023-07-30T14:27:33;1.80;;;1.20;;
62535;SDS011;63050;47.514;18.920;2023-07-30T14:32:34;1.70;;;1.00;;
62535;SDS011;63050;47.514;18.920;2023-07-30T14:37:35;2.60;;;1.20;;
62535;SDS011;63050;47.514;18.920;2023-07-30T14:42:36;1.60;;;1.00;;
62535;SDS011;63050;47.514;18.920;2023-07-30T14:47:36;2.30;;;1.40;;
62535;SDS011;63050;47.514;18.920;2023-07-30T14:52:39;2.40;;;1.00;;
62535;SDS011;63050;47.514;18.920;2023-07-30T14:57:40;2.50;;;1.30;;
62535;SDS011;63050;47.514;18.920;2023-07-30T15:02:42;1.50;;;1.10;;
62535;SDS011;63050;47.514;18.920;2023-07-30T15:07:43;1.80;;;1.10;;
62535;SDS011;63050;47.514;18.920;2023-07-30T15:12:44;2.60;;;1.20;;
62535;SDS011;63050;47.514;18.920;2023-07-30T15:17:45;2.50;;;1.20;;
62535;SDS011;63050;47.514;18.920;2023-07-30T15:22:46;3.40;;;1.40;;
62535;SDS011;63050;47.514;18.920;2023-07-30T15:27:48;2.10;;;1.40;;
62535;SDS011;63050;47.514;18.920;2023-07-30T15:32:49;2.10;;;1.30;;
62535;SDS011;63050;47.514;18.920;2023-07-30T15:37:50;4.20;;;1.50;;
62535;SDS011;63050;47.514;18.920;2023-07-30T15:42:52;2.10;;;1.50;;
62535;SDS011;63050;47.514;18.920;2023-07-30T15:47:53;2.90;;;1.20;;
62535;SDS011;63050;47.514;18.920;2023-07-30T15:52:55;2.20;;;1.40;;
62535;SDS011;63050;47.514;18.920;2023-07-30T15:57:56;3.30;;;1.40;;
62535;SDS011;63050;47.514;18.920;2023-07-30T16:02:58;1.90;;;1.10;;
62535;SDS011;63050;47.514;18.920;2023-07-30T16:08:04;1.70;;;1.20;;
62535;SDS011;63050;47.514;18.920;2023-07-30T16:13:05;2.50;;;1.30;;
62535;SDS011;63050;47.514;18.920;2023-07-30T16:18:06;1.70;;;1.10;;
62535;SDS011;63050;47.514;18.920;2023-07-30T16:23:07;2.00;;;1.10;;
62535;SDS011;63050;47.514;18.920;2023-07-30T16:28:08;2.00;;;1.20;;
62535;SDS011;63050;47.514;18.920;2023-07-30T16:33:09;1.60;;;1.10;;
62535;SDS011;63050;47.514;18.920;2023-07-30T16:38:10;2.00;;;1.20;;
62535;SDS011;63050;47.514;18.920;2023-07-30T16:43:12;2.10;;;1.10;;
62535;SDS011;63050;47.514;18.920;2023-07-30T16:48:15;1.60;;;0.90;;
62535;SDS011;63050;47.514;18.920;2023-07-30T16:53:17;2.30;;;1.30;;
62535;SDS011;63050;47.514;18.920;2023-07-30T16:58:20;1.70;;;1.30;;
62535;SDS011;63050;47.514;18.920;2023-07-30T17:03:21;2.30;;;1.30;;
62535;SDS011;63050;47.514;18.920;2023-07-30T17:08:22;2.40;;;1.50;;
62535;SDS011;63050;47.514;18.920;2023-07-30T17:13:24;1.80;;;1.50;;
62535;SDS011;63050;47.514;18.920;2023-07-30T17:18:25;4.50;;;1.40;;
62535;SDS011;63050;47.514;18.920;2023-07-30T17:23:27;2.20;;;1.30;;
62535;SDS011;63050;47.514;18.920;2023-07-30T17:28:28;2.80;;;1.60;;
62535;SDS011;63050;47.514;18.920;2023-07-30T17:33:30;2.20;;;1.20;;
62535;SDS011;63050;47.514;18.920;2023-07-30T17:38:32;2.40;;;1.50;;
62535;SDS011;63050;47.514;18.920;2023-07-30T17:43:35;1.80;;;1.20;;
62535;SDS011;63050;47.514;18.920;2023-07-30T17:48:36;2.00;;;1.40;;
62535;SDS011;63050;47.514;18.920;2023-07-30T17:53:37;2.10;;;1.40;;
62535;SDS011;63050;47.514;18.920;2023-07-30T17:58:39;1.70;;;1.10;;
62535;SDS011;63050;47.514;18.920;2023-07-30T18:03:41;2.20;;;1.10;;
62535;SDS011;63050;47.514;18.920;2023-07-30T18:08:44;3.00;;;1.20;;
62535;SDS011;63050;47.514;18.920;2023-07-30T18:13:46;2.20;;;1.50;;
62535;SDS011;63050;47.514;18.920;2023-07-30T18:18:47;2.00;;;1.40;;
62535;SDS011;63050;47.514;18.920;2023-07-30T18:23:51;2.00;;;1.30;;
62535;SDS011;63050;47.514;18.920;2023-07-30T18:28:52;2.90;;;1.60;;
62535;SDS011;63050;47.514;18.920;2023-07-30T18:33:54;4.40;;;1.60;;
62535;SDS011;63050;47.514;18.920;2023-07-30T18:38:55;2.10;;;1.50;;
62535;SDS011;63050;47.514;18.920;2023-07-30T18:43:58;2.10;;;1.40;;
62535;SDS011;63050;47.514;18.920;2023-07-30T18:48:59;2.30;;;1.50;;
62535;SDS011;63050;47.514;18.920;2023-07-30T18:54:01;3.30;;;2.10;;
62535;SDS011;63050;47.514;18.920;2023-07-30T18:59:03;4.00;;;2.60;;
62535;SDS011;63050;47.514;18.920;2023-07-30T19:04:05;2.90;;;1.80;;
62535;SDS011;63050;47.514;18.920;2023-07-30T19:09:07;1.90;;;1.50;;
62535;SDS011;63050;47.514;18.920;2023-07-30T19:14:08;2.70;;;1.90;;
62535;SDS011;63050;47.514;18.920;2023-07-30T19:19:11;3.50;;;1.70;;
62535;SDS011;63050;47.514;18.920;2023-07-30T19:24:12;4.30;;;2.10;;
62535;SDS011;63050;47.514;18.920;2023-07-30T19:29:14;2.80;;;2.00;;
62535;SDS011;63050;47.514;18.920;2023-07-30T19:34:16;3.60;;;2.60;;
62535;SDS011;63050;47.514;18.920;2023-07-30T19:39:17;4.90;;;2.40;;
62535;SDS011;63050;47.514;18.920;2023-07-30T19:44:18;4.60;;;2.10;;
62535;SDS011;63050;47.514;18.920;2023-07-30T19:49:21;3.00;;;2.10;;
62535;SDS011;63050;47.514;18.920;2023-07-30T19:54:24;3.30;;;2.20;;
62535;SDS011;63050;47.514;18.920;2023-07-30T19:59:27;3.10;;;1.70;;
62535;SDS011;63050;47.514;18.920;2023-07-30T20:04:28;2.70;;;1.90;;
62535;SDS011;63050;47.514;18.920;2023-07-30T20:09:31;4.50;;;2.10;;
62535;SDS011;63050;47.514;18.920;2023-07-30T20:19:36;2.30;;;1.70;;
62535;SDS011;63050;47.514;18.920;2023-07-30T20:24:38;2.50;;;1.80;;
62535;SDS011;63050;47.514;18.920;2023-07-30T20:29:40;2.00;;;1.40;;
62535;SDS011;63050;47.514;18.920;2023-07-30T20:34:44;5.50;;;2.00;;
62535;SDS011;63050;47.514;18.920;2023-07-30T20:39:45;2.50;;;1.70;;
62535;SDS011;63050;47.514;18.920;2023-07-30T20:44:46;4.20;;;1.70;;
62535;SDS011;63050;47.514;18.920;2023-07-30T20:49:48;3.60;;;1.90;;
62535;SDS011;63050;47.514;18.920;2023-07-30T20:54:49;4.20;;;1.70;;
62535;SDS011;63050;47.514;18.920;2023-07-30T20:59:53;2.60;;;1.90;;
62535;SDS011;63050;47.514;18.920;2023-07-30T21:04:54;2.60;;;1.80;;
62535;SDS011;63050;47.514;18.920;2023-07-30T21:09:55;2.60;;;1.90;;
62535;SDS011;63050;47.514;18.920;2023-07-30T21:14:56;3.10;;;1.70;;
62535;SDS011;63050;47.514;18.920;2023-07-30T21:19:57;3.80;;;2.20;;
62535;SDS011;63050;47.514;18.920;2023-07-30T21:24:58;4.30;;;1.80;;
62535;SDS011;63050;47.514;18.920;2023-07-30T21:30:00;2.70;;;1.90;;
62535;SDS011;63050;47.514;18.920;2023-07-30T21:35:00;4.70;;;2.10;;
62535;SDS011;63050;47.514;18.920;2023-07-30T21:40:01;2.40;;;1.70;;
62535;SDS011;63050;47.514;18.920;2023-07-30T21:45:04;2.30;;;1.80;;
62535;SDS011;63050;47.514;18.920;2023-07-30T21:50:05;2.90;;;2.20;;
62535;SDS011;63050;47.514;18.920;2023-07-30T21:55:06;4.60;;;2.40;;
62535;SDS011;63050;47.514;18.920;2023-07-30T22:00:08;3.00;;;2.10;;
62535;SDS011;63050;47.514;18.920;2023-07-30T22:05:10;5.40;;;2.40;;
62535;SDS011;63050;47.514;18.920;2023-07-30T22:10:11;4.30;;;2.20;;
62535;SDS011;63050;47.514;18.920;2023-07-30T22:15:12;2.80;;;2.00;;
62535;SDS011;63050;47.514;18.920;2023-07-30T22:20:13;4.90;;;2.70;;
62535;SDS011;63050;47.514;18.920;2023-07-30T22:25:14;3.60;;;2.90;;
62535;SDS011;63050;47.514;18.920;2023-07-30T22:30:15;3.80;;;2.70;;
62535;SDS011;63050;47.514;18.920;2023-07-30T22:35:16;6.20;;;2.60;;
62535;SDS011;63050;47.514;18.920;2023-07-30T22:40:17;3.40;;;2.30;;
62535;SDS011;63050;47.514;18.920;2023-07-30T22:45:17;3.00;;;2.40;;
62535;SDS011;63050;47.514;18.920;2023-07-30T22:50:18;3.80;;;3.00;;
62535;SDS011;63050;47.514;18.920;2023-07-30T22:55:19;3.50;;;2.50;;
62535;SDS011;63050;47.514;18.920;2023-07-30T23:00:20;4.10;;;2.50;;
62535;SDS011;63050;47.514;18.920;2023-07-30T23:05:22;2.80;;;2.00;;
62535;SDS011;63050;47.514;18.920;2023-07-30T23:10:23;3.60;;;2.30;;
62535;SDS011;63050;47.514;18.920;2023-07-30T23:15:24;4.00;;;2.50;;
62535;SDS011;63050;47.514;18.920;2023-07-30T23:20:25;2.70;;;2.00;;
62535;SDS011;63050;47.514;18.920;2023-07-30T23:25:26;3.90;;;2.60;;
62535;SDS011;63050;47.514;18.920;2023-07-30T23:30:26;4.00;;;2.40;;
62535;SDS011;63050;47.514;18.920;2023-07-30T23:35:27;3.60;;;2.50;;
62535;SDS011;63050;47.514;18.920;2023-07-30T23:40:28;2.60;;;2.30;;
62535;SDS011;63050;47.514;18.920;2023-07-30T23:45:29;3.80;;;2.70;;
62535;SDS011;63050;47.514;18.920;2023-07-30T23:50:30;4.90;;;3.60;;
62535;SDS011;63050;47.514;18.920;2023-07-30T23:55:31;3.60;;;2.30;;
